sensor_id;sensor_type;location;lat;lon;timestamp;pressure;altitude;pressure_sealevel;temperature;humidity
73558;BME280;61829;53.286;10.434;2024-02-23T00:00:23;97764.50;;;10.83;63.51
73558;BME280;61829;53.286;10.434;2024-02-23T00:03:28;97776.06;;;10.78;63.22
73558;BME280;61829;53.286;10.434;2024-02-23T00:06:16;97766.09;;;10.79;62.82
73558;BME280;61829;53.286;10.434;2024-02-23T00:09:00;97779.53;;;10.74;63.08
73558;BME280;61829;53.286;10.434;2024-02-23T00:11:45;97778.97;;;10.72;63.19
73558;BME280;61829;53.286;10.434;2024-02-23T00:14:38;97787.34;;;10.75;63.63
73558;BME280;61829;53.286;10.434;2024-02-23T00:17:23;97792.19;;;10.73;63.78
73558;BME280;61829;53.286;10.434;2024-02-23T00:20:09;97806.19;;;10.70;63.49
73558;BME280;61829;53.286;10.434;2024-02-23T00:22:55;97810.78;;;10.75;64.06
73558;BME280;61829;53.286;10.434;2024-02-23T00:25:40;97825.84;;;10.71;63.96
73558;BME280;61829;53.286;10.434;2024-02-23T00:28:25;97830.16;;;10.72;64.06
73558;BME280;61829;53.286;10.434;2024-02-23T00:31:10;97842.84;;;10.76;64.07
73558;BME280;61829;53.286;10.434;2024-02-23T00:33:55;97858.44;;;10.74;64.96
73558;BME280;61829;53.286;10.434;2024-02-23T00:36:41;97833.31;;;10.64;64.65
73558;BME280;61829;53.286;10.434;2024-02-23T00:39:25;97841.88;;;10.55;63.23
73558;BME280;61829;53.286;10.434;2024-02-23T00:42:10;97846.59;;;10.38;63.32
73558;BME280;61829;53.286;10.434;2024-02-23T00:44:54;97873.22;;;10.34;63.25
73558;BME280;61829;53.286;10.434;2024-02-23T00:47:39;97851.78;;;10.18;62.02
73558;BME280;61829;53.286;10.434;2024-02-23T00:50:24;97852.28;;;10.15;61.95
73558;BME280;61829;53.286;10.434;2024-02-23T00:53:10;97858.47;;;10.15;62.65
73558;BME280;61829;53.286;10.434;2024-02-23T00:55:55;97870.50;;;10.07;60.38
73558;BME280;61829;53.286;10.434;2024-02-23T00:58:44;97867.00;;;10.07;61.64
73558;BME280;61829;53.286;10.434;2024-02-23T01:01:29;97877.81;;;10.12;60.62
73558;BME280;61829;53.286;10.434;2024-02-23T01:04:13;97893.41;;;10.10;60.65
73558;BME280;61829;53.286;10.434;2024-02-23T01:06:58;97890.41;;;10.06;60.00
73558;BME280;61829;53.286;10.434;2024-02-23T01:09:43;97898.25;;;10.08;59.95
73558;BME280;61829;53.286;10.434;2024-02-23T01:12:28;97904.63;;;10.02;59.33
73558;BME280;61829;53.286;10.434;2024-02-23T01:15:12;97897.13;;;10.04;59.01
73558;BME280;61829;53.286;10.434;2024-02-23T01:17:57;97915.94;;;10.04;59.08
73558;BME280;61829;53.286;10.434;2024-02-23T01:20:41;97919.22;;;10.06;58.58
73558;BME280;61829;53.286;10.434;2024-02-23T01:23:26;97924.47;;;9.96;58.78
73558;BME280;61829;53.286;10.434;2024-02-23T01:26:12;97934.22;;;10.02;59.17
73558;BME280;61829;53.286;10.434;2024-02-23T01:28:57;97944.38;;;9.95;58.02
73558;BME280;61829;53.286;10.434;2024-02-23T01:31:42;97915.28;;;9.92;58.15
73558;BME280;61829;53.286;10.434;2024-02-23T01:34:27;97953.50;;;9.94;57.69
73558;BME280;61829;53.286;10.434;2024-02-23T01:37:11;97985.09;;;10.03;58.03
73558;BME280;61829;53.286;10.434;2024-02-23T01:39:56;98001.22;;;10.03;59.61
73558;BME280;61829;53.286;10.434;2024-02-23T01:42:41;98029.81;;;9.87;64.91
73558;BME280;61829;53.286;10.434;2024-02-23T01:45:25;98053.19;;;9.48;68.08
73558;BME280;61829;53.286;10.434;2024-02-23T01:48:11;98065.91;;;9.19;70.42
73558;BME280;61829;53.286;10.434;2024-02-23T01:50:55;98064.69;;;9.10;71.98
73558;BME280;61829;53.286;10.434;2024-02-23T01:53:40;98062.47;;;8.90;72.63
73558;BME280;61829;53.286;10.434;2024-02-23T01:56:25;98077.44;;;8.86;72.75
73558;BME280;61829;53.286;10.434;2024-02-23T01:59:12;98104.22;;;8.81;73.55
73558;BME280;61829;53.286;10.434;2024-02-23T02:01:57;98106.00;;;8.63;73.17
73558;BME280;61829;53.286;10.434;2024-02-23T02:04:42;98129.84;;;8.60;72.82
73558;BME280;61829;53.286;10.434;2024-02-23T02:07:29;98141.31;;;8.55;73.27
73558;BME280;61829;53.286;10.434;2024-02-23T02:10:14;98145.34;;;8.58;73.16
73558;BME280;61829;53.286;10.434;2024-02-23T02:13:03;98162.66;;;8.50;74.27
73558;BME280;61829;53.286;10.434;2024-02-23T02:15:48;98183.28;;;8.38;75.67
73558;BME280;61829;53.286;10.434;2024-02-23T02:18:34;98183.44;;;8.31;76.95
73558;BME280;61829;53.286;10.434;2024-02-23T02:21:18;98176.81;;;8.22;78.28
73558;BME280;61829;53.286;10.434;2024-02-23T02:24:08;98194.41;;;8.18;79.02
73558;BME280;61829;53.286;10.434;2024-02-23T02:26:55;98203.72;;;8.03;79.18
73558;BME280;61829;53.286;10.434;2024-02-23T02:29:40;98189.03;;;8.06;79.67
73558;BME280;61829;53.286;10.434;2024-02-23T02:32:25;98206.06;;;8.00;79.61
73558;BME280;61829;53.286;10.434;2024-02-23T02:35:12;98207.22;;;7.92;79.62
73558;BME280;61829;53.286;10.434;2024-02-23T02:37:57;98207.69;;;7.89;79.53
73558;BME280;61829;53.286;10.434;2024-02-23T02:40:41;98233.94;;;7.87;79.29
73558;BME280;61829;53.286;10.434;2024-02-23T02:43:27;98248.97;;;7.88;79.66
73558;BME280;61829;53.286;10.434;2024-02-23T02:46:13;98267.50;;;7.90;79.92
73558;BME280;61829;53.286;10.434;2024-02-23T02:48:57;98279.63;;;7.92;80.00
73558;BME280;61829;53.286;10.434;2024-02-23T02:51:41;98300.59;;;7.83;80.67
73558;BME280;61829;53.286;10.434;2024-02-23T02:54:26;98307.78;;;7.71;81.66
73558;BME280;61829;53.286;10.434;2024-02-23T02:57:10;98322.44;;;7.57;81.44
73558;BME280;61829;53.286;10.434;2024-02-23T02:59:55;98333.09;;;7.45;81.11
73558;BME280;61829;53.286;10.434;2024-02-23T03:02:41;98352.75;;;7.39;81.38
73558;BME280;61829;53.286;10.434;2024-02-23T03:05:26;98349.78;;;7.29;81.66
73558;BME280;61829;53.286;10.434;2024-02-23T03:08:10;98363.19;;;7.29;82.11
73558;BME280;61829;53.286;10.434;2024-02-23T03:10:58;98355.97;;;7.29;81.71
73558;BME280;61829;53.286;10.434;2024-02-23T03:13:43;98364.53;;;7.19;81.97
73558;BME280;61829;53.286;10.434;2024-02-23T03:16:27;98371.75;;;7.19;81.94
73558;BME280;61829;53.286;10.434;2024-02-23T03:19:15;98382.06;;;7.15;82.37
73558;BME280;61829;53.286;10.434;2024-02-23T03:21:59;98389.75;;;7.12;82.19
73558;BME280;61829;53.286;10.434;2024-02-23T03:24:46;98388.94;;;7.11;81.66
73558;BME280;61829;53.286;10.434;2024-02-23T03:27:31;98409.53;;;7.11;81.46
73558;BME280;61829;53.286;10.434;2024-02-23T03:30:17;98416.19;;;7.02;81.14
73558;BME280;61829;53.286;10.434;2024-02-23T03:33:01;98416.19;;;7.02;80.64
73558;BME280;61829;53.286;10.434;2024-02-23T03:35:46;98407.34;;;7.01;80.63
73558;BME280;61829;53.286;10.434;2024-02-23T03:38:30;98419.41;;;6.92;81.09
73558;BME280;61829;53.286;10.434;2024-02-23T03:41:15;98426.34;;;7.00;80.66
73558;BME280;61829;53.286;10.434;2024-02-23T03:43:59;98438.75;;;6.94;81.06
73558;BME280;61829;53.286;10.434;2024-02-23T03:46:43;98438.94;;;6.92;80.92
73558;BME280;61829;53.286;10.434;2024-02-23T03:49:31;98459.22;;;6.82;81.24
73558;BME280;61829;53.286;10.434;2024-02-23T03:52:16;98463.75;;;6.81;80.94
73558;BME280;61829;53.286;10.434;2024-02-23T03:55:01;98455.13;;;6.79;80.99
73558;BME280;61829;53.286;10.434;2024-02-23T03:57:45;98463.81;;;6.74;80.75
73558;BME280;61829;53.286;10.434;2024-02-23T04:00:30;98464.25;;;6.71;80.67
73558;BME280;61829;53.286;10.434;2024-02-23T04:03:14;98483.25;;;6.63;79.98
73558;BME280;61829;53.286;10.434;2024-02-23T04:05:58;98478.56;;;6.59;79.79
73558;BME280;61829;53.286;10.434;2024-02-23T04:08:43;98483.69;;;6.60;78.86
73558;BME280;61829;53.286;10.434;2024-02-23T04:11:29;98502.19;;;6.62;78.74
73558;BME280;61829;53.286;10.434;2024-02-23T04:14:14;98509.78;;;6.65;77.90
73558;BME280;61829;53.286;10.434;2024-02-23T04:16:58;98499.78;;;6.53;78.32
73558;BME280;61829;53.286;10.434;2024-02-23T04:19:43;98510.47;;;6.53;78.88
73558;BME280;61829;53.286;10.434;2024-02-23T04:22:28;98519.72;;;6.58;78.43
73558;BME280;61829;53.286;10.434;2024-02-23T04:25:12;98529.22;;;6.53;79.02
73558;BME280;61829;53.286;10.434;2024-02-23T04:27:57;98529.88;;;6.49;78.73
73558;BME280;61829;53.286;10.434;2024-02-23T04:30:42;98527.19;;;6.49;79.24
73558;BME280;61829;53.286;10.434;2024-02-23T04:33:26;98531.75;;;6.48;79.00
73558;BME280;61829;53.286;10.434;2024-02-23T04:36:11;98529.25;;;6.47;78.71
73558;BME280;61829;53.286;10.434;2024-02-23T04:38:55;98529.75;;;6.37;78.79
73558;BME280;61829;53.286;10.434;2024-02-23T04:41:40;98534.53;;;6.28;79.22
73558;BME280;61829;53.286;10.434;2024-02-23T04:44:26;98525.09;;;6.19;79.03
73558;BME280;61829;53.286;10.434;2024-02-23T04:47:11;98536.00;;;6.18;79.39
73558;BME280;61829;53.286;10.434;2024-02-23T04:49:55;98549.78;;;6.21;79.26
73558;BME280;61829;53.286;10.434;2024-02-23T04:52:40;98554.31;;;6.21;79.19
73558;BME280;61829;53.286;10.434;2024-02-23T04:55:27;98559.66;;;6.14;79.08
73558;BME280;61829;53.286;10.434;2024-02-23T04:58:13;98567.91;;;6.13;79.01
73558;BME280;61829;53.286;10.434;2024-02-23T05:00:57;98558.91;;;6.00;79.49
73558;BME280;61829;53.286;10.434;2024-02-23T05:03:42;98567.53;;;6.02;79.39
73558;BME280;61829;53.286;10.434;2024-02-23T05:06:26;98571.44;;;6.06;79.91
73558;BME280;61829;53.286;10.434;2024-02-23T05:09:10;98569.38;;;6.02;79.42
73558;BME280;61829;53.286;10.434;2024-02-23T05:11:55;98575.53;;;6.02;79.89
73558;BME280;61829;53.286;10.434;2024-02-23T05:14:47;98575.56;;;5.96;79.77
73558;BME280;61829;53.286;10.434;2024-02-23T05:17:32;98581.75;;;5.96;79.12
73558;BME280;61829;53.286;10.434;2024-02-23T05:20:17;98590.81;;;5.95;79.48
73558;BME280;61829;53.286;10.434;2024-02-23T05:23:01;98605.38;;;5.93;78.44
73558;BME280;61829;53.286;10.434;2024-02-23T05:25:45;98606.63;;;6.03;78.70
73558;BME280;61829;53.286;10.434;2024-02-23T05:28:30;98614.00;;;6.01;79.00
73558;BME280;61829;53.286;10.434;2024-02-23T05:31:14;98630.06;;;6.01;78.63
73558;BME280;61829;53.286;10.434;2024-02-23T05:33:59;98638.47;;;6.05;78.92
73558;BME280;61829;53.286;10.434;2024-02-23T05:36:44;98636.63;;;6.05;79.23
73558;BME280;61829;53.286;10.434;2024-02-23T05:39:29;98645.47;;;6.06;79.51
73558;BME280;61829;53.286;10.434;2024-02-23T05:42:14;98664.16;;;6.13;79.03
73558;BME280;61829;53.286;10.434;2024-02-23T05:44:58;98668.28;;;6.15;79.16
73558;BME280;61829;53.286;10.434;2024-02-23T05:47:45;98665.81;;;6.07;79.14
73558;BME280;61829;53.286;10.434;2024-02-23T05:50:36;98669.13;;;6.09;79.75
73558;BME280;61829;53.286;10.434;2024-02-23T05:53:28;98685.59;;;6.06;79.45
73558;BME280;61829;53.286;10.434;2024-02-23T05:56:19;98684.34;;;6.02;79.09
73558;BME280;61829;53.286;10.434;2024-02-23T05:59:03;98694.25;;;5.95;78.92
73558;BME280;61829;53.286;10.434;2024-02-23T06:02:06;98689.91;;;6.00;79.53
73558;BME280;61829;53.286;10.434;2024-02-23T06:04:54;98692.16;;;5.97;78.94
73558;BME280;61829;53.286;10.434;2024-02-23T06:07:38;98696.06;;;5.94;79.57
73558;BME280;61829;53.286;10.434;2024-02-23T06:10:24;98713.34;;;5.98;79.68
73558;BME280;61829;53.286;10.434;2024-02-23T06:13:09;98718.88;;;5.97;79.09
73558;BME280;61829;53.286;10.434;2024-02-23T06:15:53;98729.38;;;5.98;79.94
73558;BME280;61829;53.286;10.434;2024-02-23T06:18:38;98733.50;;;6.01;80.35
73558;BME280;61829;53.286;10.434;2024-02-23T06:21:25;98730.00;;;6.00;80.58
73558;BME280;61829;53.286;10.434;2024-02-23T06:24:10;98736.59;;;5.98;79.89
73558;BME280;61829;53.286;10.434;2024-02-23T06:26:54;98741.88;;;5.91;80.06
73558;BME280;61829;53.286;10.434;2024-02-23T06:33:39;98751.13;;;5.89;79.69
73558;BME280;61829;53.286;10.434;2024-02-23T06:36:25;98748.09;;;5.92;79.96
73558;BME280;61829;53.286;10.434;2024-02-23T06:39:11;98760.81;;;5.90;80.51
73558;BME280;61829;53.286;10.434;2024-02-23T06:41:56;98760.19;;;5.88;80.63
73558;BME280;61829;53.286;10.434;2024-02-23T06:44:41;98763.28;;;5.84;80.54
73558;BME280;61829;53.286;10.434;2024-02-23T06:47:30;98769.44;;;5.85;80.44
73558;BME280;61829;53.286;10.434;2024-02-23T06:50:19;98768.44;;;5.86;80.28
73558;BME280;61829;53.286;10.434;2024-02-23T06:53:03;98764.31;;;5.83;79.99
73558;BME280;61829;53.286;10.434;2024-02-23T06:55:51;98775.19;;;5.82;80.66
73558;BME280;61829;53.286;10.434;2024-02-23T06:58:36;98777.28;;;5.87;79.83
73558;BME280;61829;53.286;10.434;2024-02-23T07:01:20;98781.16;;;5.91;79.72
73558;BME280;61829;53.286;10.434;2024-02-23T07:04:05;98789.63;;;5.94;80.12
73558;BME280;61829;53.286;10.434;2024-02-23T07:06:49;98781.59;;;5.94;79.45
73558;BME280;61829;53.286;10.434;2024-02-23T07:09:34;98789.63;;;5.94;79.12
73558;BME280;61829;53.286;10.434;2024-02-23T07:12:21;98806.69;;;6.00;78.27
73558;BME280;61829;53.286;10.434;2024-02-23T07:15:06;98808.97;;;6.10;78.12
73558;BME280;61829;53.286;10.434;2024-02-23T07:17:52;98815.75;;;6.19;77.89
73558;BME280;61829;53.286;10.434;2024-02-23T07:20:37;98815.13;;;6.37;76.81
73558;BME280;61829;53.286;10.434;2024-02-23T07:23:23;98822.50;;;6.61;74.78
73558;BME280;61829;53.286;10.434;2024-02-23T07:26:08;98822.00;;;6.97;73.54
73558;BME280;61829;53.286;10.434;2024-02-23T07:28:56;98834.03;;;7.33;71.76
73558;BME280;61829;53.286;10.434;2024-02-23T07:31:53;98833.47;;;7.63;70.34
73558;BME280;61829;53.286;10.434;2024-02-23T07:34:37;98832.88;;;7.93;68.94
73558;BME280;61829;53.286;10.434;2024-02-23T07:37:22;98834.00;;;8.03;68.05
73558;BME280;61829;53.286;10.434;2024-02-23T07:40:06;98842.25;;;8.33;67.42
73558;BME280;61829;53.286;10.434;2024-02-23T07:42:52;98838.78;;;8.58;65.64
73558;BME280;61829;53.286;10.434;2024-02-23T07:45:37;98840.13;;;8.86;64.92
73558;BME280;61829;53.286;10.434;2024-02-23T07:48:21;98855.66;;;9.02;62.96
73558;BME280;61829;53.286;10.434;2024-02-23T07:51:06;98851.09;;;9.03;62.50
73558;BME280;61829;53.286;10.434;2024-02-23T07:53:53;98856.66;;;9.26;62.10
73558;BME280;61829;53.286;10.434;2024-02-23T07:56:37;98855.53;;;9.15;62.21
73558;BME280;61829;53.286;10.434;2024-02-23T07:59:22;98853.81;;;8.84;62.34
73558;BME280;61829;53.286;10.434;2024-02-23T08:02:06;98855.13;;;8.93;61.95
73558;BME280;61829;53.286;10.434;2024-02-23T08:04:51;98874.34;;;9.15;61.25
73558;BME280;61829;53.286;10.434;2024-02-23T08:07:36;98862.44;;;9.41;60.92
73558;BME280;61829;53.286;10.434;2024-02-23T08:10:21;98881.19;;;9.48;60.31
73558;BME280;61829;53.286;10.434;2024-02-23T08:13:06;98884.25;;;9.52;59.51
73558;BME280;61829;53.286;10.434;2024-02-23T08:15:50;98872.03;;;9.67;60.06
73558;BME280;61829;53.286;10.434;2024-02-23T08:18:37;98881.97;;;9.85;59.15
73558;BME280;61829;53.286;10.434;2024-02-23T08:21:22;98879.78;;;10.06;58.58
73558;BME280;61829;53.286;10.434;2024-02-23T08:24:08;98880.41;;;10.20;58.14
73558;BME280;61829;53.286;10.434;2024-02-23T08:26:53;98876.44;;;10.22;57.74
73558;BME280;61829;53.286;10.434;2024-02-23T08:29:38;98886.06;;;10.30;57.14
73558;BME280;61829;53.286;10.434;2024-02-23T08:32:23;98884.81;;;10.44;57.73
73558;BME280;61829;53.286;10.434;2024-02-23T08:35:07;98902.28;;;10.42;56.98
73558;BME280;61829;53.286;10.434;2024-02-23T08:37:53;98892.56;;;10.52;56.95
73558;BME280;61829;53.286;10.434;2024-02-23T08:40:38;98909.19;;;10.61;55.80
73558;BME280;61829;53.286;10.434;2024-02-23T08:43:24;98919.16;;;10.72;55.76
73558;BME280;61829;53.286;10.434;2024-02-23T08:46:08;98926.06;;;10.56;55.91
73558;BME280;61829;53.286;10.434;2024-02-23T08:48:53;98923.09;;;10.34;55.81
73558;BME280;61829;53.286;10.434;2024-02-23T08:51:38;98918.47;;;10.23;56.59
73558;BME280;61829;53.286;10.434;2024-02-23T08:54:22;98923.63;;;10.25;56.62
73558;BME280;61829;53.286;10.434;2024-02-23T08:57:07;98930.00;;;10.30;56.89
73558;BME280;61829;53.286;10.434;2024-02-23T08:59:54;98938.19;;;10.36;56.61
73558;BME280;61829;53.286;10.434;2024-02-23T09:02:41;98939.72;;;10.13;56.82
73558;BME280;61829;53.286;10.434;2024-02-23T09:05:26;98950.00;;;10.16;57.17
73558;BME280;61829;53.286;10.434;2024-02-23T09:08:11;98952.03;;;10.21;56.98
73558;BME280;61829;53.286;10.434;2024-02-23T09:10:57;98953.06;;;9.89;56.91
73558;BME280;61829;53.286;10.434;2024-02-23T09:13:42;98961.19;;;9.71;57.90
73558;BME280;61829;53.286;10.434;2024-02-23T09:16:27;98962.66;;;9.67;58.06
73558;BME280;61829;53.286;10.434;2024-02-23T09:19:12;98957.00;;;9.57;58.20
73558;BME280;61829;53.286;10.434;2024-02-23T09:21:57;98972.00;;;9.64;57.77
73558;BME280;61829;53.286;10.434;2024-02-23T09:24:41;98969.00;;;9.73;57.33
73558;BME280;61829;53.286;10.434;2024-02-23T09:27:26;98978.81;;;9.85;57.10
73558;BME280;61829;53.286;10.434;2024-02-23T09:30:12;98977.81;;;9.98;56.83
73558;BME280;61829;53.286;10.434;2024-02-23T09:32:57;98984.44;;;10.14;56.67
73558;BME280;61829;53.286;10.434;2024-02-23T09:35:42;98978.88;;;10.27;54.98
73558;BME280;61829;53.286;10.434;2024-02-23T09:38:30;98980.94;;;10.44;55.20
73558;BME280;61829;53.286;10.434;2024-02-23T09:41:23;98988.06;;;10.38;54.55
73558;BME280;61829;53.286;10.434;2024-02-23T09:44:08;98984.44;;;10.44;55.50
73558;BME280;61829;53.286;10.434;2024-02-23T09:46:53;98986.28;;;10.62;54.25
73558;BME280;61829;53.286;10.434;2024-02-23T09:49:39;98996.91;;;10.57;53.44
73558;BME280;61829;53.286;10.434;2024-02-23T09:52:24;98997.63;;;10.64;52.98
73558;BME280;61829;53.286;10.434;2024-02-23T09:55:09;99009.47;;;10.75;52.30
73558;BME280;61829;53.286;10.434;2024-02-23T09:57:57;99017.53;;;10.63;50.64
73558;BME280;61829;53.286;10.434;2024-02-23T10:00:43;99017.06;;;10.66;50.98
73558;BME280;61829;53.286;10.434;2024-02-23T10:03:28;99027.75;;;10.73;51.11
73558;BME280;61829;53.286;10.434;2024-02-23T10:06:15;99041.94;;;10.80;51.30
73558;BME280;61829;53.286;10.434;2024-02-23T10:08:59;99039.97;;;10.87;50.99
73558;BME280;61829;53.286;10.434;2024-02-23T10:11:44;99051.78;;;10.86;51.53
73558;BME280;61829;53.286;10.434;2024-02-23T10:14:29;99050.06;;;10.92;51.01
73558;BME280;61829;53.286;10.434;2024-02-23T10:17:14;99061.22;;;11.07;51.23
73558;BME280;61829;53.286;10.434;2024-02-23T10:20:01;99054.31;;;11.23;51.50
73558;BME280;61829;53.286;10.434;2024-02-23T10:22:49;99061.13;;;11.26;51.20
73558;BME280;61829;53.286;10.434;2024-02-23T10:25:35;99064.75;;;11.19;50.19
73558;BME280;61829;53.286;10.434;2024-02-23T10:28:20;99068.25;;;11.08;50.43
73558;BME280;61829;53.286;10.434;2024-02-23T10:31:07;99073.69;;;11.32;51.74
73558;BME280;61829;53.286;10.434;2024-02-23T10:33:52;99064.66;;;11.38;49.80
73558;BME280;61829;53.286;10.434;2024-02-23T10:36:42;99079.66;;;11.57;50.04
73558;BME280;61829;53.286;10.434;2024-02-23T10:39:29;99086.38;;;11.78;49.17
73558;BME280;61829;53.286;10.434;2024-02-23T10:42:16;99083.91;;;11.77;48.41
73558;BME280;61829;53.286;10.434;2024-02-23T10:45:05;99102.31;;;11.56;48.89
73558;BME280;61829;53.286;10.434;2024-02-23T10:47:50;99103.94;;;11.34;48.21
73558;BME280;61829;53.286;10.434;2024-02-23T10:50:37;99089.97;;;11.37;48.83
73558;BME280;61829;53.286;10.434;2024-02-23T10:53:26;99091.41;;;11.39;49.08
73558;BME280;61829;53.286;10.434;2024-02-23T10:56:11;99091.97;;;11.30;48.30
73558;BME280;61829;53.286;10.434;2024-02-23T10:58:55;99087.06;;;11.27;47.98
73558;BME280;61829;53.286;10.434;2024-02-23T11:01:41;99097.38;;;11.30;48.94
73558;BME280;61829;53.286;10.434;2024-02-23T11:04:48;99096.78;;;11.28;48.96
73558;BME280;61829;53.286;10.434;2024-02-23T11:07:38;99103.56;;;11.18;48.61
73558;BME280;61829;53.286;10.434;2024-02-23T11:10:49;99098.84;;;11.14;48.48
73558;BME280;61829;53.286;10.434;2024-02-23T11:13:35;99092.06;;;11.23;49.29
73558;BME280;61829;53.286;10.434;2024-02-23T11:16:22;99092.19;;;11.16;48.60
73558;BME280;61829;53.286;10.434;2024-02-23T11:23:14;99098.09;;;10.95;49.00
73558;BME280;61829;53.286;10.434;2024-02-23T11:31:31;99087.66;;;10.87;49.48
73558;BME280;61829;53.286;10.434;2024-02-23T11:34:22;99091.69;;;10.96;50.23
73558;BME280;61829;53.286;10.434;2024-02-23T11:37:11;99093.78;;;10.94;49.79
73558;BME280;61829;53.286;10.434;2024-02-23T11:39:57;99098.22;;;11.00;50.53
73558;BME280;61829;53.286;10.434;2024-02-23T11:42:42;99096.78;;;10.86;49.47
73558;BME280;61829;53.286;10.434;2024-02-23T11:45:28;99096.94;;;10.91;49.57
73558;BME280;61829;53.286;10.434;2024-02-23T11:48:12;99096.94;;;10.91;49.36
73558;BME280;61829;53.286;10.434;2024-02-23T11:50:57;99082.72;;;10.84;48.36
73558;BME280;61829;53.286;10.434;2024-02-23T11:53:42;99081.75;;;10.78;48.76
73558;BME280;61829;53.286;10.434;2024-02-23T11:56:29;99096.88;;;10.79;48.70
73558;BME280;61829;53.286;10.434;2024-02-23T11:59:14;99081.44;;;10.86;49.05
73558;BME280;61829;53.286;10.434;2024-02-23T12:01:59;99085.34;;;10.90;49.60
73558;BME280;61829;53.286;10.434;2024-02-23T12:08:40;99077.25;;;10.90;48.79
73558;BME280;61829;53.286;10.434;2024-02-23T12:11:26;99089.47;;;10.74;47.59
73558;BME280;61829;53.286;10.434;2024-02-23T12:14:12;99092.84;;;10.70;48.80
73558;BME280;61829;53.286;10.434;2024-02-23T12:16:57;99087.72;;;10.68;47.99
73558;BME280;61829;53.286;10.434;2024-02-23T12:19:42;99099.97;;;10.64;48.27
73558;BME280;61829;53.286;10.434;2024-02-23T12:22:27;99100.56;;;10.66;48.96
73558;BME280;61829;53.286;10.434;2024-02-23T12:25:12;99100.75;;;10.53;48.29
73558;BME280;61829;53.286;10.434;2024-02-23T12:27:57;99112.56;;;10.52;48.98
73558;BME280;61829;53.286;10.434;2024-02-23T12:30:41;99106.81;;;10.48;48.40
73558;BME280;61829;53.286;10.434;2024-02-23T12:33:32;99096.28;;;10.47;48.24
73558;BME280;61829;53.286;10.434;2024-02-23T12:36:16;99106.88;;;10.60;49.00
73558;BME280;61829;53.286;10.434;2024-02-23T12:39:01;99102.47;;;10.66;48.90
73558;BME280;61829;53.286;10.434;2024-02-23T12:41:46;99102.34;;;10.72;49.07
73558;BME280;61829;53.286;10.434;2024-02-23T12:44:31;99112.09;;;10.73;49.12
73558;BME280;61829;53.286;10.434;2024-02-23T12:47:16;99103.47;;;10.83;49.56
73558;BME280;61829;53.286;10.434;2024-02-23T12:50:00;99111.22;;;10.91;48.97
73558;BME280;61829;53.286;10.434;2024-02-23T12:52:45;99112.31;;;11.02;48.92
73558;BME280;61829;53.286;10.434;2024-02-23T12:55:30;99109.28;;;11.10;47.44
73558;BME280;61829;53.286;10.434;2024-02-23T12:58:15;99098.22;;;11.00;47.44
73558;BME280;61829;53.286;10.434;2024-02-23T13:01:01;99113.13;;;11.02;47.54
73558;BME280;61829;53.286;10.434;2024-02-23T13:03:48;99108.56;;;11.03;48.07
73558;BME280;61829;53.286;10.434;2024-02-23T13:06:32;99104.28;;;10.84;47.58
73558;BME280;61829;53.286;10.434;2024-02-23T13:09:17;99115.06;;;10.84;48.05
73558;BME280;61829;53.286;10.434;2024-02-23T13:12:02;99108.63;;;10.85;48.22
73558;BME280;61829;53.286;10.434;2024-02-23T13:14:51;99110.72;;;10.83;47.75
73558;BME280;61829;53.286;10.434;2024-02-23T13:17:36;99113.06;;;10.79;47.79
73558;BME280;61829;53.286;10.434;2024-02-23T13:20:22;99128.63;;;10.77;48.12
73558;BME280;61829;53.286;10.434;2024-02-23T13:23:08;99124.97;;;10.71;48.33
73558;BME280;61829;53.286;10.434;2024-02-23T13:25:53;99129.22;;;10.79;48.35
73558;BME280;61829;53.286;10.434;2024-02-23T13:28:38;99128.25;;;10.73;48.85
73558;BME280;61829;53.286;10.434;2024-02-23T13:31:25;99127.34;;;10.79;48.71
73558;BME280;61829;53.286;10.434;2024-02-23T13:34:09;99130.03;;;10.79;48.93
73558;BME280;61829;53.286;10.434;2024-02-23T13:36:55;99138.72;;;10.82;48.58
73558;BME280;61829;53.286;10.434;2024-02-23T13:39:41;99133.34;;;10.82;48.97
73558;BME280;61829;53.286;10.434;2024-02-23T13:42:29;99134.75;;;10.84;47.91
73558;BME280;61829;53.286;10.434;2024-02-23T13:45:13;99133.56;;;10.80;48.58
73558;BME280;61829;53.286;10.434;2024-02-23T13:48:00;99144.44;;;10.73;48.45
73558;BME280;61829;53.286;10.434;2024-02-23T13:50:46;99141.72;;;10.73;48.39
73558;BME280;61829;53.286;10.434;2024-02-23T13:53:31;99132.91;;;10.66;48.04
73558;BME280;61829;53.286;10.434;2024-02-23T13:56:17;99139.25;;;10.72;48.70
73558;BME280;61829;53.286;10.434;2024-02-23T13:59:02;99140.00;;;10.79;49.03
73558;BME280;61829;53.286;10.434;2024-02-23T14:01:46;99136.09;;;10.75;48.83
73558;BME280;61829;53.286;10.434;2024-02-23T14:04:31;99143.38;;;10.74;49.18
73558;BME280;61829;53.286;10.434;2024-02-23T14:07:21;99160.00;;;10.71;49.27
73558;BME280;61829;53.286;10.434;2024-02-23T14:10:07;99148.59;;;10.69;48.98
73558;BME280;61829;53.286;10.434;2024-02-23T14:12:52;99164.19;;;10.67;49.38
73558;BME280;61829;53.286;10.434;2024-02-23T14:15:36;99150.13;;;10.65;49.69
73558;BME280;61829;53.286;10.434;2024-02-23T14:18:21;99146.97;;;10.68;49.09
73558;BME280;61829;53.286;10.434;2024-02-23T14:21:05;99157.91;;;10.73;49.76
73558;BME280;61829;53.286;10.434;2024-02-23T14:23:49;99156.47;;;10.71;49.11
73558;BME280;61829;53.286;10.434;2024-02-23T14:26:34;99150.03;;;10.72;49.24
73558;BME280;61829;53.286;10.434;2024-02-23T14:29:19;99151.31;;;10.69;49.15
73558;BME280;61829;53.286;10.434;2024-02-23T14:32:05;99150.72;;;10.67;49.28
73558;BME280;61829;53.286;10.434;2024-02-23T14:34:49;99150.50;;;10.69;49.30
73558;BME280;61829;53.286;10.434;2024-02-23T14:37:37;99149.38;;;10.58;48.82
73558;BME280;61829;53.286;10.434;2024-02-23T14:40:24;99157.25;;;10.60;49.04
73558;BME280;61829;53.286;10.434;2024-02-23T14:43:09;99161.22;;;10.57;49.16
73558;BME280;61829;53.286;10.434;2024-02-23T14:45:54;99157.91;;;10.55;48.71
73558;BME280;61829;53.286;10.434;2024-02-23T14:48:38;99150.06;;;10.53;49.44